sensor_id;sensor_type;location;lat;lon;timestamp;P1;durP1;ratioP1;P2;durP2;ratioP2
13764;SDS011;6953;48.810;9.204;2023-07-30T00:01:10;0.20;;;0.20;;
13764;SDS011;6953;48.810;9.204;2023-07-30T00:03:36;0.20;;;0.20;;
13764;SDS011;6953;48.810;9.204;2023-07-30T00:06:01;0.20;;;0.20;;
13764;SDS011;6953;48.810;9.204;2023-07-30T00:08:26;0.20;;;0.20;;
13764;SDS011;6953;48.810;9.204;2023-07-30T00:10:51;0.20;;;0.20;;
13764;SDS011;6953;48.810;9.204;2023-07-30T00:13:17;0.20;;;0.20;;
13764;SDS011;6953;48.810;9.204;2023-07-30T00:15:42;0.20;;;0.20;;
13764;SDS011;6953;48.810;9.204;2023-07-30T00:18:07;0.20;;;0.20;;
13764;SDS011;6953;48.810;9.204;2023-07-30T00:20:36;0.17;;;0.17;;
13764;SDS011;6953;48.810;9.204;2023-07-30T00:23:01;0.17;;;0.17;;
13764;SDS011;6953;48.810;9.204;2023-07-30T00:25:26;0.20;;;0.20;;
13764;SDS011;6953;48.810;9.204;2023-07-30T00:27:51;0.20;;;0.20;;
13764;SDS011;6953;48.810;9.204;2023-07-30T00:30:17;0.20;;;0.20;;
13764;SDS011;6953;48.810;9.204;2023-07-30T00:32:42;0.20;;;0.20;;
13764;SDS011;6953;48.810;9.204;2023-07-30T00:35:08;0.20;;;0.20;;
13764;SDS011;6953;48.810;9.204;2023-07-30T00:37:34;0.20;;;0.20;;
13764;SDS011;6953;48.810;9.204;2023-07-30T00:40:00;0.20;;;0.20;;
13764;SDS011;6953;48.810;9.204;2023-07-30T00:42:25;0.20;;;0.20;;
13764;SDS011;6953;48.810;9.204;2023-07-30T00:44:51;0.10;;;0.10;;
13764;SDS011;6953;48.810;9.204;2023-07-30T00:47:16;0.20;;;0.20;;
13764;SDS011;6953;48.810;9.204;2023-07-30T00:49:42;0.22;;;0.22;;
13764;SDS011;6953;48.810;9.204;2023-07-30T00:52:07;0.30;;;0.30;;
13764;SDS011;6953;48.810;9.204;2023-07-30T00:54:33;0.10;;;0.10;;
13764;SDS011;6953;48.810;9.204;2023-07-30T00:56:58;0.20;;;0.20;;
13764;SDS011;6953;48.810;9.204;2023-07-30T00:59:25;0.30;;;0.30;;
13764;SDS011;6953;48.810;9.204;2023-07-30T01:01:51;0.20;;;0.20;;
13764;SDS011;6953;48.810;9.204;2023-07-30T01:04:17;0.20;;;0.20;;
13764;SDS011;6953;48.810;9.204;2023-07-30T01:06:42;0.20;;;0.20;;
13764;SDS011;6953;48.810;9.204;2023-07-30T01:09:08;0.10;;;0.10;;
13764;SDS011;6953;48.810;9.204;2023-07-30T01:11:34;0.20;;;0.20;;
13764;SDS011;6953;48.810;9.204;2023-07-30T01:14:01;0.20;;;0.20;;
13764;SDS011;6953;48.810;9.204;2023-07-30T01:16:28;0.20;;;0.20;;
13764;SDS011;6953;48.810;9.204;2023-07-30T01:18:53;0.20;;;0.20;;
13764;SDS011;6953;48.810;9.204;2023-07-30T01:21:18;0.13;;;0.13;;
13764;SDS011;6953;48.810;9.204;2023-07-30T01:23:44;0.25;;;0.25;;
13764;SDS011;6953;48.810;9.204;2023-07-30T01:26:14;0.20;;;0.20;;
13764;SDS011;6953;48.810;9.204;2023-07-30T01:28:46;0.20;;;0.20;;
13764;SDS011;6953;48.810;9.204;2023-07-30T01:31:14;0.20;;;0.20;;
13764;SDS011;6953;48.810;9.204;2023-07-30T01:33:41;0.30;;;0.30;;
13764;SDS011;6953;48.810;9.204;2023-07-30T01:36:07;0.20;;;0.20;;
13764;SDS011;6953;48.810;9.204;2023-07-30T01:38:35;0.20;;;0.20;;
13764;SDS011;6953;48.810;9.204;2023-07-30T01:41:02;0.20;;;0.20;;
13764;SDS011;6953;48.810;9.204;2023-07-30T01:43:28;0.20;;;0.20;;
13764;SDS011;6953;48.810;9.204;2023-07-30T01:45:53;0.22;;;0.22;;
13764;SDS011;6953;48.810;9.204;2023-07-30T01:48:18;0.20;;;0.20;;
13764;SDS011;6953;48.810;9.204;2023-07-30T01:50:44;0.20;;;0.20;;
13764;SDS011;6953;48.810;9.204;2023-07-30T01:53:12;0.20;;;0.20;;
13764;SDS011;6953;48.810;9.204;2023-07-30T01:55:37;0.25;;;0.25;;
13764;SDS011;6953;48.810;9.204;2023-07-30T01:58:04;0.20;;;0.20;;
13764;SDS011;6953;48.810;9.204;2023-07-30T02:00:29;0.20;;;0.20;;
13764;SDS011;6953;48.810;9.204;2023-07-30T02:02:55;0.20;;;0.20;;
13764;SDS011;6953;48.810;9.204;2023-07-30T02:05:20;0.22;;;0.22;;
13764;SDS011;6953;48.810;9.204;2023-07-30T02:07:45;0.20;;;0.20;;
13764;SDS011;6953;48.810;9.204;2023-07-30T02:10:10;0.20;;;0.20;;
13764;SDS011;6953;48.810;9.204;2023-07-30T02:12:36;0.20;;;0.20;;
13764;SDS011;6953;48.810;9.204;2023-07-30T02:15:01;0.20;;;0.20;;
13764;SDS011;6953;48.810;9.204;2023-07-30T02:17:27;0.20;;;0.20;;
13764;SDS011;6953;48.810;9.204;2023-07-30T02:19:53;0.20;;;0.20;;
13764;SDS011;6953;48.810;9.204;2023-07-30T02:22:18;0.20;;;0.20;;
13764;SDS011;6953;48.810;9.204;2023-07-30T02:24:43;0.10;;;0.10;;
13764;SDS011;6953;48.810;9.204;2023-07-30T02:27:08;0.20;;;0.20;;
13764;SDS011;6953;48.810;9.204;2023-07-30T02:29:34;0.22;;;0.22;;
13764;SDS011;6953;48.810;9.204;2023-07-30T02:31:59;0.20;;;0.20;;
13764;SDS011;6953;48.810;9.204;2023-07-30T02:34:24;0.20;;;0.20;;
13764;SDS011;6953;48.810;9.204;2023-07-30T02:36:50;0.20;;;0.20;;
13764;SDS011;6953;48.810;9.204;2023-07-30T02:39:15;0.20;;;0.20;;
13764;SDS011;6953;48.810;9.204;2023-07-30T02:41:40;0.20;;;0.20;;
13764;SDS011;6953;48.810;9.204;2023-07-30T02:44:06;0.20;;;0.20;;
13764;SDS011;6953;48.810;9.204;2023-07-30T02:46:31;0.20;;;0.20;;
13764;SDS011;6953;48.810;9.204;2023-07-30T02:48:56;0.20;;;0.20;;
13764;SDS011;6953;48.810;9.204;2023-07-30T02:51:21;0.20;;;0.20;;
13764;SDS011;6953;48.810;9.204;2023-07-30T02:53:47;0.20;;;0.20;;
13764;SDS011;6953;48.810;9.204;2023-07-30T02:56:16;0.20;;;0.20;;
13764;SDS011;6953;48.810;9.204;2023-07-30T02:58:42;0.20;;;0.20;;
13764;SDS011;6953;48.810;9.204;2023-07-30T03:01:07;0.20;;;0.20;;
13764;SDS011;6953;48.810;9.204;2023-07-30T03:03:33;0.20;;;0.20;;
13764;SDS011;6953;48.810;9.204;2023-07-30T03:05:58;0.20;;;0.20;;
13764;SDS011;6953;48.810;9.204;2023-07-30T03:08:24;0.20;;;0.20;;
13764;SDS011;6953;48.810;9.204;2023-07-30T03:10:49;0.20;;;0.20;;
13764;SDS011;6953;48.810;9.204;2023-07-30T03:13:14;0.20;;;0.20;;
13764;SDS011;6953;48.810;9.204;2023-07-30T03:15:39;0.20;;;0.20;;
13764;SDS011;6953;48.810;9.204;2023-07-30T03:18:05;0.10;;;0.10;;
13764;SDS011;6953;48.810;9.204;2023-07-30T03:20:30;0.20;;;0.20;;
13764;SDS011;6953;48.810;9.204;2023-07-30T03:22:55;0.13;;;0.13;;
13764;SDS011;6953;48.810;9.204;2023-07-30T03:25:21;0.20;;;0.20;;
13764;SDS011;6953;48.810;9.204;2023-07-30T03:27:46;0.20;;;0.20;;
13764;SDS011;6953;48.810;9.204;2023-07-30T03:30:11;0.20;;;0.20;;
13764;SDS011;6953;48.810;9.204;2023-07-30T03:32:36;0.20;;;0.20;;
13764;SDS011;6953;48.810;9.204;2023-07-30T03:35:02;0.20;;;0.20;;
13764;SDS011;6953;48.810;9.204;2023-07-30T03:37:27;0.20;;;0.20;;
13764;SDS011;6953;48.810;9.204;2023-07-30T03:39:52;0.20;;;0.20;;
13764;SDS011;6953;48.810;9.204;2023-07-30T03:42:18;0.20;;;0.20;;
13764;SDS011;6953;48.810;9.204;2023-07-30T03:44:43;0.20;;;0.20;;
13764;SDS011;6953;48.810;9.204;2023-07-30T03:47:08;0.20;;;0.20;;
13764;SDS011;6953;48.810;9.204;2023-07-30T03:49:34;0.20;;;0.20;;
13764;SDS011;6953;48.810;9.204;2023-07-30T03:51:59;0.22;;;0.22;;
13764;SDS011;6953;48.810;9.204;2023-07-30T03:54:25;0.20;;;0.20;;
13764;SDS011;6953;48.810;9.204;2023-07-30T03:56:50;0.20;;;0.20;;
13764;SDS011;6953;48.810;9.204;2023-07-30T03:59:15;0.20;;;0.20;;
13764;SDS011;6953;48.810;9.204;2023-07-30T04:01:40;0.20;;;0.20;;
13764;SDS011;6953;48.810;9.204;2023-07-30T04:04:06;0.20;;;0.20;;
13764;SDS011;6953;48.810;9.204;2023-07-30T04:06:31;0.20;;;0.20;;
13764;SDS011;6953;48.810;9.204;2023-07-30T04:08:56;0.20;;;0.20;;
13764;SDS011;6953;48.810;9.204;2023-07-30T04:11:22;0.20;;;0.20;;
13764;SDS011;6953;48.810;9.204;2023-07-30T04:13:47;0.20;;;0.20;;
13764;SDS011;6953;48.810;9.204;2023-07-30T04:16:12;0.20;;;0.20;;
13764;SDS011;6953;48.810;9.204;2023-07-30T04:18:37;0.13;;;0.13;;
13764;SDS011;6953;48.810;9.204;2023-07-30T04:21:03;0.20;;;0.20;;
13764;SDS011;6953;48.810;9.204;2023-07-30T04:23:28;0.17;;;0.17;;
13764;SDS011;6953;48.810;9.204;2023-07-30T04:25:53;0.20;;;0.20;;
13764;SDS011;6953;48.810;9.204;2023-07-30T04:28:19;0.17;;;0.17;;
13764;SDS011;6953;48.810;9.204;2023-07-30T04:30:44;0.20;;;0.20;;
13764;SDS011;6953;48.810;9.204;2023-07-30T04:33:11;0.20;;;0.20;;
13764;SDS011;6953;48.810;9.204;2023-07-30T04:35:38;0.10;;;0.10;;
13764;SDS011;6953;48.810;9.204;2023-07-30T04:38:04;0.28;;;0.28;;
13764;SDS011;6953;48.810;9.204;2023-07-30T04:40:29;0.20;;;0.20;;
13764;SDS011;6953;48.810;9.204;2023-07-30T04:42:55;0.20;;;0.20;;
13764;SDS011;6953;48.810;9.204;2023-07-30T04:45:20;0.17;;;0.17;;
13764;SDS011;6953;48.810;9.204;2023-07-30T04:47:45;0.20;;;0.20;;
13764;SDS011;6953;48.810;9.204;2023-07-30T04:50:10;0.20;;;0.20;;
13764;SDS011;6953;48.810;9.204;2023-07-30T04:52:37;0.20;;;0.20;;
13764;SDS011;6953;48.810;9.204;2023-07-30T04:55:03;0.20;;;0.20;;
13764;SDS011;6953;48.810;9.204;2023-07-30T04:57:28;0.20;;;0.20;;
13764;SDS011;6953;48.810;9.204;2023-07-30T04:59:53;0.30;;;0.30;;
13764;SDS011;6953;48.810;9.204;2023-07-30T05:02:19;0.20;;;0.20;;
13764;SDS011;6953;48.810;9.204;2023-07-30T05:04:44;0.10;;;0.10;;
13764;SDS011;6953;48.810;9.204;2023-07-30T05:07:09;0.20;;;0.20;;
13764;SDS011;6953;48.810;9.204;2023-07-30T05:09:35;0.20;;;0.20;;
13764;SDS011;6953;48.810;9.204;2023-07-30T05:12:00;0.20;;;0.20;;
13764;SDS011;6953;48.810;9.204;2023-07-30T05:14:25;0.20;;;0.20;;
13764;SDS011;6953;48.810;9.204;2023-07-30T05:16:51;0.20;;;0.20;;
13764;SDS011;6953;48.810;9.204;2023-07-30T05:19:16;0.20;;;0.20;;
13764;SDS011;6953;48.810;9.204;2023-07-30T05:21:42;0.20;;;0.20;;
13764;SDS011;6953;48.810;9.204;2023-07-30T05:24:07;0.20;;;0.20;;
13764;SDS011;6953;48.810;9.204;2023-07-30T05:26:32;0.20;;;0.20;;
13764;SDS011;6953;48.810;9.204;2023-07-30T05:28:58;0.20;;;0.20;;
13764;SDS011;6953;48.810;9.204;2023-07-30T05:31:23;0.20;;;0.20;;
13764;SDS011;6953;48.810;9.204;2023-07-30T05:33:48;0.30;;;0.30;;
13764;SDS011;6953;48.810;9.204;2023-07-30T05:36:14;0.20;;;0.20;;
13764;SDS011;6953;48.810;9.204;2023-07-30T05:38:39;0.20;;;0.20;;
13764;SDS011;6953;48.810;9.204;2023-07-30T05:41:04;0.20;;;0.20;;
13764;SDS011;6953;48.810;9.204;2023-07-30T05:43:29;0.20;;;0.20;;
13764;SDS011;6953;48.810;9.204;2023-07-30T05:45:55;0.30;;;0.30;;
13764;SDS011;6953;48.810;9.204;2023-07-30T05:48:20;0.20;;;0.20;;
13764;SDS011;6953;48.810;9.204;2023-07-30T05:50:45;0.20;;;0.20;;
13764;SDS011;6953;48.810;9.204;2023-07-30T05:53:11;0.20;;;0.20;;
13764;SDS011;6953;48.810;9.204;2023-07-30T05:55:36;0.20;;;0.20;;
13764;SDS011;6953;48.810;9.204;2023-07-30T05:58:01;0.20;;;0.20;;
13764;SDS011;6953;48.810;9.204;2023-07-30T06:00:27;0.20;;;0.20;;
13764;SDS011;6953;48.810;9.204;2023-07-30T06:02:52;0.10;;;0.10;;
13764;SDS011;6953;48.810;9.204;2023-07-30T06:05:17;0.20;;;0.20;;
13764;SDS011;6953;48.810;9.204;2023-07-30T06:07:42;0.20;;;0.20;;
13764;SDS011;6953;48.810;9.204;2023-07-30T06:10:08;0.20;;;0.20;;
13764;SDS011;6953;48.810;9.204;2023-07-30T06:12:33;0.20;;;0.20;;
13764;SDS011;6953;48.810;9.204;2023-07-30T06:14:59;0.20;;;0.20;;
13764;SDS011;6953;48.810;9.204;2023-07-30T06:17:24;0.20;;;0.20;;
13764;SDS011;6953;48.810;9.204;2023-07-30T06:19:49;0.20;;;0.20;;
13764;SDS011;6953;48.810;9.204;2023-07-30T06:22:15;0.20;;;0.20;;
13764;SDS011;6953;48.810;9.204;2023-07-30T06:24:40;0.20;;;0.20;;
13764;SDS011;6953;48.810;9.204;2023-07-30T06:27:05;0.20;;;0.20;;
13764;SDS011;6953;48.810;9.204;2023-07-30T06:29:31;0.20;;;0.20;;
13764;SDS011;6953;48.810;9.204;2023-07-30T06:31:56;0.20;;;0.20;;
13764;SDS011;6953;48.810;9.204;2023-07-30T06:34:21;0.20;;;0.20;;
13764;SDS011;6953;48.810;9.204;2023-07-30T06:36:47;0.17;;;0.17;;
13764;SDS011;6953;48.810;9.204;2023-07-30T06:39:12;0.20;;;0.20;;
13764;SDS011;6953;48.810;9.204;2023-07-30T06:41:37;0.10;;;0.10;;
13764;SDS011;6953;48.810;9.204;2023-07-30T06:44:03;0.15;;;0.15;;
13764;SDS011;6953;48.810;9.204;2023-07-30T06:46:28;0.10;;;0.10;;
13764;SDS011;6953;48.810;9.204;2023-07-30T06:48:53;0.10;;;0.10;;
13764;SDS011;6953;48.810;9.204;2023-07-30T06:51:19;0.05;;;0.05;;
13764;SDS011;6953;48.810;9.204;2023-07-30T06:53:45;0.20;;;0.20;;
13764;SDS011;6953;48.810;9.204;2023-07-30T06:56:10;0.10;;;0.10;;
13764;SDS011;6953;48.810;9.204;2023-07-30T06:58:35;0.10;;;0.10;;
13764;SDS011;6953;48.810;9.204;2023-07-30T07:01:01;0.10;;;0.10;;
13764;SDS011;6953;48.810;9.204;2023-07-30T07:03:26;0.10;;;0.10;;
13764;SDS011;6953;48.810;9.204;2023-07-30T07:05:55;0.10;;;0.10;;
13764;SDS011;6953;48.810;9.204;2023-07-30T07:08:21;0.10;;;0.10;;
13764;SDS011;6953;48.810;9.204;2023-07-30T07:10:46;0.20;;;0.20;;
13764;SDS011;6953;48.810;9.204;2023-07-30T07:13:12;0.10;;;0.10;;
13764;SDS011;6953;48.810;9.204;2023-07-30T07:15:40;0.10;;;0.10;;
13764;SDS011;6953;48.810;9.204;2023-07-30T07:18:08;0.10;;;0.10;;
13764;SDS011;6953;48.810;9.204;2023-07-30T07:20:35;0.20;;;0.20;;
13764;SDS011;6953;48.810;9.204;2023-07-30T07:23:00;0.10;;;0.10;;
13764;SDS011;6953;48.810;9.204;2023-07-30T07:25:25;0.20;;;0.20;;
13764;SDS011;6953;48.810;9.204;2023-07-30T07:27:51;0.20;;;0.20;;
13764;SDS011;6953;48.810;9.204;2023-07-30T07:30:16;0.10;;;0.10;;
13764;SDS011;6953;48.810;9.204;2023-07-30T07:32:41;0.20;;;0.20;;
13764;SDS011;6953;48.810;9.204;2023-07-30T07:35:07;0.10;;;0.10;;
13764;SDS011;6953;48.810;9.204;2023-07-30T07:37:32;0.10;;;0.10;;
13764;SDS011;6953;48.810;9.204;2023-07-30T07:39:58;0.10;;;0.10;;
13764;SDS011;6953;48.810;9.204;2023-07-30T07:42:23;0.10;;;0.10;;
13764;SDS011;6953;48.810;9.204;2023-07-30T07:44:49;0.10;;;0.10;;
13764;SDS011;6953;48.810;9.204;2023-07-30T07:47:14;0.20;;;0.20;;
13764;SDS011;6953;48.810;9.204;2023-07-30T07:49:39;0.20;;;0.20;;
13764;SDS011;6953;48.810;9.204;2023-07-30T07:52:05;0.20;;;0.20;;
13764;SDS011;6953;48.810;9.204;2023-07-30T07:54:30;0.20;;;0.20;;
13764;SDS011;6953;48.810;9.204;2023-07-30T07:56:55;0.17;;;0.17;;
13764;SDS011;6953;48.810;9.204;2023-07-30T07:59:21;0.20;;;0.20;;
13764;SDS011;6953;48.810;9.204;2023-07-30T08:01:46;0.17;;;0.17;;
13764;SDS011;6953;48.810;9.204;2023-07-30T08:04:11;0.20;;;0.20;;
13764;SDS011;6953;48.810;9.204;2023-07-30T08:06:37;0.10;;;0.10;;
13764;SDS011;6953;48.810;9.204;2023-07-30T08:09:02;0.20;;;0.20;;
13764;SDS011;6953;48.810;9.204;2023-07-30T08:11:27;0.20;;;0.20;;
13764;SDS011;6953;48.810;9.204;2023-07-30T08:13:52;0.15;;;0.15;;
13764;SDS011;6953;48.810;9.204;2023-07-30T08:16:18;0.20;;;0.20;;
13764;SDS011;6953;48.810;9.204;2023-07-30T08:18:43;0.10;;;0.10;;
13764;SDS011;6953;48.810;9.204;2023-07-30T08:21:08;0.20;;;0.20;;
13764;SDS011;6953;48.810;9.204;2023-07-30T08:23:34;0.10;;;0.10;;
13764;SDS011;6953;48.810;9.204;2023-07-30T08:25:59;0.10;;;0.10;;
13764;SDS011;6953;48.810;9.204;2023-07-30T08:28:24;0.10;;;0.10;;
13764;SDS011;6953;48.810;9.204;2023-07-30T08:30:50;0.10;;;0.10;;
13764;SDS011;6953;48.810;9.204;2023-07-30T08:33:15;0.10;;;0.10;;
13764;SDS011;6953;48.810;9.204;2023-07-30T08:35:40;0.05;;;0.05;;
13764;SDS011;6953;48.810;9.204;2023-07-30T08:38:06;0.05;;;0.05;;
13764;SDS011;6953;48.810;9.204;2023-07-30T08:40:31;0.00;;;0.00;;
13764;SDS011;6953;48.810;9.204;2023-07-30T08:42:57;0.10;;;0.10;;
13764;SDS011;6953;48.810;9.204;2023-07-30T08:45:22;0.08;;;0.08;;
13764;SDS011;6953;48.810;9.204;2023-07-30T08:47:48;0.00;;;0.00;;
13764;SDS011;6953;48.810;9.204;2023-07-30T08:50:13;0.08;;;0.08;;
13764;SDS011;6953;48.810;9.204;2023-07-30T08:52:39;0.00;;;0.00;;
13764;SDS011;6953;48.810;9.204;2023-07-30T08:55:06;0.00;;;0.00;;
13764;SDS011;6953;48.810;9.204;2023-07-30T08:57:32;0.00;;;0.00;;
13764;SDS011;6953;48.810;9.204;2023-07-30T09:00:02;0.00;;;0.00;;
13764;SDS011;6953;48.810;9.204;2023-07-30T09:02:31;0.00;;;0.00;;
13764;SDS011;6953;48.810;9.204;2023-07-30T09:05:01;0.10;;;0.10;;
13764;SDS011;6953;48.810;9.204;2023-07-30T09:07:27;0.00;;;0.00;;
13764;SDS011;6953;48.810;9.204;2023-07-30T09:09:53;0.00;;;0.00;;
13764;SDS011;6953;48.810;9.204;2023-07-30T09:12:18;0.00;;;0.00;;
13764;SDS011;6953;48.810;9.204;2023-07-30T09:14:44;0.00;;;0.00;;
13764;SDS011;6953;48.810;9.204;2023-07-30T09:17:16;0.00;;;0.00;;
13764;SDS011;6953;48.810;9.204;2023-07-30T09:19:43;0.00;;;0.00;;
13764;SDS011;6953;48.810;9.204;2023-07-30T09:22:08;0.00;;;0.00;;
13764;SDS011;6953;48.810;9.204;2023-07-30T09:24:34;0.00;;;0.00;;
13764;SDS011;6953;48.810;9.204;2023-07-30T09:27:02;0.00;;;0.00;;
13764;SDS011;6953;48.810;9.204;2023-07-30T09:29:28;0.00;;;0.00;;
13764;SDS011;6953;48.810;9.204;2023-07-30T09:31:54;0.00;;;0.00;;
13764;SDS011;6953;48.810;9.204;2023-07-30T09:34:20;0.00;;;0.00;;
13764;SDS011;6953;48.810;9.204;2023-07-30T09:36:48;0.00;;;0.00;;
13764;SDS011;6953;48.810;9.204;2023-07-30T09:39:19;0.10;;;0.10;;
13764;SDS011;6953;48.810;9.204;2023-07-30T09:41:46;0.10;;;0.10;;
13764;SDS011;6953;48.810;9.204;2023-07-30T09:44:12;0.10;;;0.10;;
13764;SDS011;6953;48.810;9.204;2023-07-30T09:46:44;0.10;;;0.10;;
13764;SDS011;6953;48.810;9.204;2023-07-30T09:49:14;0.10;;;0.10;;
13764;SDS011;6953;48.810;9.204;2023-07-30T09:51:41;0.03;;;0.03;;
13764;SDS011;6953;48.810;9.204;2023-07-30T09:54:07;0.03;;;0.03;;
13764;SDS011;6953;48.810;9.204;2023-07-30T09:56:33;0.10;;;0.10;;
13764;SDS011;6953;48.810;9.204;2023-07-30T09:59:03;0.10;;;0.10;;
13764;SDS011;6953;48.810;9.204;2023-07-30T10:01:32;0.00;;;0.00;;
13764;SDS011;6953;48.810;9.204;2023-07-30T10:04:07;0.10;;;0.10;;
13764;SDS011;6953;48.810;9.204;2023-07-30T10:06:34;0.10;;;0.10;;
13764;SDS011;6953;48.810;9.204;2023-07-30T10:09:04;0.10;;;0.10;;
13764;SDS011;6953;48.810;9.204;2023-07-30T10:11:32;0.08;;;0.08;;
13764;SDS011;6953;48.810;9.204;2023-07-30T10:13:57;0.00;;;0.00;;
13764;SDS011;6953;48.810;9.204;2023-07-30T10:16:28;0.08;;;0.08;;
13764;SDS011;6953;48.810;9.204;2023-07-30T10:18:57;0.00;;;0.00;;
13764;SDS011;6953;48.810;9.204;2023-07-30T10:21:24;0.00;;;0.00;;
13764;SDS011;6953;48.810;9.204;2023-07-30T10:24:04;0.00;;;0.00;;
13764;SDS011;6953;48.810;9.204;2023-07-30T10:26:30;0.00;;;0.00;;
13764;SDS011;6953;48.810;9.204;2023-07-30T10:29:10;0.00;;;0.00;;
13764;SDS011;6953;48.810;9.204;2023-07-30T10:31:40;0.00;;;0.00;;
13764;SDS011;6953;48.810;9.204;2023-07-30T10:34:07;0.00;;;0.00;;
13764;SDS011;6953;48.810;9.204;2023-07-30T10:36:36;0.00;;;0.00;;
13764;SDS011;6953;48.810;9.204;2023-07-30T10:41:56;0.00;;;0.00;;
13764;SDS011;6953;48.810;9.204;2023-07-30T10:47:00;0.00;;;0.00;;
13764;SDS011;6953;48.810;9.204;2023-07-30T10:49:28;0.00;;;0.00;;
13764;SDS011;6953;48.810;9.204;2023-07-30T10:55:15;0.00;;;0.00;;
13764;SDS011;6953;48.810;9.204;2023-07-30T10:57:40;0.00;;;0.00;;
13764;SDS011;6953;48.810;9.204;2023-07-30T11:00:08;0.00;;;0.00;;
13764;SDS011;6953;48.810;9.204;2023-07-30T11:02:35;0.00;;;0.00;;
13764;SDS011;6953;48.810;9.204;2023-07-30T11:05:10;0.00;;;0.00;;
13764;SDS011;6953;48.810;9.204;2023-07-30T11:07:36;0.00;;;0.00;;
13764;SDS011;6953;48.810;9.204;2023-07-30T11:10:02;0.00;;;0.00;;
13764;SDS011;6953;48.810;9.204;2023-07-30T11:12:27;0.00;;;0.00;;
13764;SDS011;6953;48.810;9.204;2023-07-30T11:14:59;0.00;;;0.00;;
13764;SDS011;6953;48.810;9.204;2023-07-30T11:17:28;0.00;;;0.00;;
13764;SDS011;6953;48.810;9.204;2023-07-30T11:19:53;0.00;;;0.00;;
13764;SDS011;6953;48.810;9.204;2023-07-30T11:22:28;0.00;;;0.00;;
13764;SDS011;6953;48.810;9.204;2023-07-30T11:24:55;0.00;;;0.00;;
13764;SDS011;6953;48.810;9.204;2023-07-30T11:27:21;0.00;;;0.00;;
13764;SDS011;6953;48.810;9.204;2023-07-30T11:29:56;0.00;;;0.00;;
13764;SDS011;6953;48.810;9.204;2023-07-30T11:32:22;0.00;;;0.00;;
13764;SDS011;6953;48.810;9.204;2023-07-30T11:34:51;0.00;;;0.00;;
13764;SDS011;6953;48.810;9.204;2023-07-30T11:37:20;0.00;;;0.00;;
13764;SDS011;6953;48.810;9.204;2023-07-30T11:39:47;0.00;;;0.00;;
13764;SDS011;6953;48.810;9.204;2023-07-30T11:42:13;0.00;;;0.00;;
13764;SDS011;6953;48.810;9.204;2023-07-30T11:44:38;0.00;;;0.00;;
13764;SDS011;6953;48.810;9.204;2023-07-30T11:47:04;0.00;;;0.00;;
13764;SDS011;6953;48.810;9.204;2023-07-30T11:49:30;0.10;;;0.10;;
13764;SDS011;6953;48.810;9.204;2023-07-30T11:52:05;0.10;;;0.10;;
13764;SDS011;6953;48.810;9.204;2023-07-30T11:54:32;0.10;;;0.10;;
13764;SDS011;6953;48.810;9.204;2023-07-30T11:56:57;0.10;;;0.10;;
13764;SDS011;6953;48.810;9.204;2023-07-30T11:59:23;0.10;;;0.10;;
13764;SDS011;6953;48.810;9.204;2023-07-30T12:01:48;0.10;;;0.10;;
13764;SDS011;6953;48.810;9.204;2023-07-30T12:04:14;0.10;;;0.10;;
13764;SDS011;6953;48.810;9.204;2023-07-30T12:06:43;0.10;;;0.10;;
13764;SDS011;6953;48.810;9.204;2023-07-30T12:09:14;0.10;;;0.10;;
13764;SDS011;6953;48.810;9.204;2023-07-30T12:11:48;0.00;;;0.00;;
13764;SDS011;6953;48.810;9.204;2023-07-30T12:14:19;0.00;;;0.00;;
13764;SDS011;6953;48.810;9.204;2023-07-30T12:16:47;0.10;;;0.10;;
13764;SDS011;6953;48.810;9.204;2023-07-30T12:19:12;0.07;;;0.07;;
13764;SDS011;6953;48.810;9.204;2023-07-30T12:21:37;0.10;;;0.10;;
13764;SDS011;6953;48.810;9.204;2023-07-30T12:24:03;0.10;;;0.10;;
13764;SDS011;6953;48.810;9.204;2023-07-30T12:26:28;0.10;;;0.10;;
13764;SDS011;6953;48.810;9.204;2023-07-30T12:28:54;0.10;;;0.10;;
13764;SDS011;6953;48.810;9.204;2023-07-30T12:31:20;0.10;;;0.10;;
13764;SDS011;6953;48.810;9.204;2023-07-30T12:33:45;0.10;;;0.10;;
13764;SDS011;6953;48.810;9.204;2023-07-30T12:36:10;0.10;;;0.10;;
13764;SDS011;6953;48.810;9.204;2023-07-30T12:38:35;0.10;;;0.10;;
13764;SDS011;6953;48.810;9.204;2023-07-30T12:41:01;0.10;;;0.10;;
13764;SDS011;6953;48.810;9.204;2023-07-30T12:43:26;0.10;;;0.10;;
13764;SDS011;6953;48.810;9.204;2023-07-30T12:45:51;0.10;;;0.10;;
13764;SDS011;6953;48.810;9.204;2023-07-30T12:48:17;0.10;;;0.10;;
13764;SDS011;6953;48.810;9.204;2023-07-30T12:50:42;0.10;;;0.10;;
13764;SDS011;6953;48.810;9.204;2023-07-30T12:53:07;0.10;;;0.10;;
13764;SDS011;6953;48.810;9.204;2023-07-30T12:55:33;0.10;;;0.10;;
13764;SDS011;6953;48.810;9.204;2023-07-30T12:57:58;0.10;;;0.10;;
13764;SDS011;6953;48.810;9.204;2023-07-30T13:00:24;0.10;;;0.10;;
13764;SDS011;6953;48.810;9.204;2023-07-30T13:02:49;0.10;;;0.10;;
13764;SDS011;6953;48.810;9.204;2023-07-30T13:05:17;0.10;;;0.10;;
13764;SDS011;6953;48.810;9.204;2023-07-30T13:07:42;0.10;;;0.10;;
13764;SDS011;6953;48.810;9.204;2023-07-30T13:10:08;0.10;;;0.10;;
13764;SDS011;6953;48.810;9.204;2023-07-30T13:12:34;0.10;;;0.10;;
13764;SDS011;6953;48.810;9.204;2023-07-30T13:15:00;0.10;;;0.10;;
13764;SDS011;6953;48.810;9.204;2023-07-30T13:17:26;0.10;;;0.10;;
13764;SDS011;6953;48.810;9.204;2023-07-30T13:19:51;0.10;;;0.10;;
13764;SDS011;6953;48.810;9.204;2023-07-30T13:22:16;0.10;;;0.10;;
13764;SDS011;6953;48.810;9.204;2023-07-30T13:24:42;0.10;;;0.10;;
13764;SDS011;6953;48.810;9.204;2023-07-30T13:27:07;0.10;;;0.10;;
13764;SDS011;6953;48.810;9.204;2023-07-30T13:29:32;0.10;;;0.10;;
13764;SDS011;6953;48.810;9.204;2023-07-30T13:31:58;0.10;;;0.10;;
13764;SDS011;6953;48.810;9.204;2023-07-30T13:34:23;0.10;;;0.10;;
13764;SDS011;6953;48.810;9.204;2023-07-30T13:36:48;0.10;;;0.10;;
13764;SDS011;6953;48.810;9.204;2023-07-30T13:39:14;0.00;;;0.00;;
13764;SDS011;6953;48.810;9.204;2023-07-30T13:41:39;0.10;;;0.10;;
13764;SDS011;6953;48.810;9.204;2023-07-30T13:44:05;0.10;;;0.10;;
13764;SDS011;6953;48.810;9.204;2023-07-30T13:46:30;0.10;;;0.10;;
13764;SDS011;6953;48.810;9.204;2023-07-30T13:48:55;0.13;;;0.13;;
13764;SDS011;6953;48.810;9.204;2023-07-30T13:51:21;0.10;;;0.10;;
13764;SDS011;6953;48.810;9.204;2023-07-30T13:53:46;0.10;;;0.10;;
13764;SDS011;6953;48.810;9.204;2023-07-30T13:56:11;0.10;;;0.10;;
13764;SDS011;6953;48.810;9.204;2023-07-30T13:58:37;0.10;;;0.10;;
13764;SDS011;6953;48.810;9.204;2023-07-30T14:01:04;0.10;;;0.10;;
13764;SDS011;6953;48.810;9.204;2023-07-30T14:03:29;0.10;;;0.10;;
13764;SDS011;6953;48.810;9.204;2023-07-30T14:05:55;0.10;;;0.10;;
13764;SDS011;6953;48.810;9.204;2023-07-30T14:08:20;0.10;;;0.10;;
13764;SDS011;6953;48.810;9.204;2023-07-30T14:10:45;0.10;;;0.10;;
13764;SDS011;6953;48.810;9.204;2023-07-30T14:13:12;0.05;;;0.05;;
13764;SDS011;6953;48.810;9.204;2023-07-30T14:15:38;0.10;;;0.10;;
13764;SDS011;6953;48.810;9.204;2023-07-30T14:18:03;0.10;;;0.10;;
13764;SDS011;6953;48.810;9.204;2023-07-30T14:20:29;0.10;;;0.10;;
13764;SDS011;6953;48.810;9.204;2023-07-30T14:22:54;0.10;;;0.10;;
13764;SDS011;6953;48.810;9.204;2023-07-30T14:25:19;0.10;;;0.10;;
13764;SDS011;6953;48.810;9.204;2023-07-30T14:27:45;0.10;;;0.10;;
13764;SDS011;6953;48.810;9.204;2023-07-30T14:30:10;0.10;;;0.10;;
13764;SDS011;6953;48.810;9.204;2023-07-30T14:32:36;0.10;;;0.10;;
13764;SDS011;6953;48.810;9.204;2023-07-30T14:35:01;0.15;;;0.15;;
13764;SDS011;6953;48.810;9.204;2023-07-30T14:37:28;0.10;;;0.10;;
13764;SDS011;6953;48.810;9.204;2023-07-30T14:39:53;0.30;;;0.30;;
13764;SDS011;6953;48.810;9.204;2023-07-30T14:42:18;0.20;;;0.20;;
13764;SDS011;6953;48.810;9.204;2023-07-30T14:44:43;0.10;;;0.10;;
13764;SDS011;6953;48.810;9.204;2023-07-30T14:47:09;0.10;;;0.10;;
13764;SDS011;6953;48.810;9.204;2023-07-30T14:49:35;0.10;;;0.10;;
13764;SDS011;6953;48.810;9.204;2023-07-30T14:52:02;0.20;;;0.20;;
13764;SDS011;6953;48.810;9.204;2023-07-30T14:54:28;0.10;;;0.10;;
13764;SDS011;6953;48.810;9.204;2023-07-30T14:56:53;0.10;;;0.10;;
13764;SDS011;6953;48.810;9.204;2023-07-30T14:59:18;0.00;;;0.00;;
13764;SDS011;6953;48.810;9.204;2023-07-30T15:01:44;0.00;;;0.00;;